Résultats 2021-2022

COURSE CLUB JUIN 2022 : LES 10 KM DE L'HEXAGONE DE WASQUEHAL

10km de L'HEXAGONE - 10KM (10.000 km) - 19 Juin 2022
C L A S S E M E N T G E N E R A L - 10.000 km

310 participants 

Clt Nom - Prénom Nat Licence Doss. Né Clt Cat Clt Sx Temps Moy. Club

27 MAREAU ALEXANDRE FRA n°4187 93 17 SEM 27 M 00:40:39 14.76

33 MATHON GAUTIER FRA n°4191 94 21 SEM 33 M 00:41:01 14.63

53 HERMAN ANTOINE       FRA n°743 84 6 M0M 51 M    00:43:37 13.76

68 GUESQUIERE DAVID-ALEXANFDRRAE n°4128 91 35 SEM 64M 00:45:05 13.31

79 DEREMETZ NICOLAS FRA n°4078 79 9 M1M 74 M 00:45:27 13.21

80 DENIS SÉBASTIEN FRA n°4075 78 10 M1M 75 M 00:45:31 13.18

92 PREUX BRUNO FRA n°4228 74 5 M2M 85 M 00:46:25 12.93

110 BRUNEEL GUILLAUME FRA n°4035 74 9 M2M 100 M 00:48:05

117 BRACQ ALICE FRA n°4033 95 8 SEF 11 F 00:48:52 12.28

134 SANTERRE BETTY FRA n°4250 72 1 M3F 16 F 00:49:49 12.05

137 BEYAERT MICHEL FRA n°4022 67 2 M4M 120 M 00:50:13 11.95

145 CANTEAU MAXIME FRA n°4041 87 23 M0M 126 M 00:50:58 11.77

172 RUCK NATHALIE FRA n°4242 72 3 M3F 26 F 00:53:15 11.27

177 BOURGOIS LAURELINE FRA n°4031 76 3 M2F 29 F 00:53:35 11.20

188 GONZALEZ JOSÉ FRA n°4124 62 4 M5M 155 M 00:54:28 11.02

192 PLASSON MICHEL FRA n°4220 53 4 M6M 157 M 00:54:35 10.99

201 RUCK PASCAL FRA n°4241 69 15 M3M 161 M 00:55:08 10.88

202 LAÏ SANDRINE FRA n°4153 73 5 M2F 41 F 00:55:17 10.86

205 OMARI NASSERA FRA n°4207 71 4 M3F 43 F 00:55:27 10.82

223 DECLERCK AMAL FRA n°4065 81 3 M1F 52 F 00:57:18 10.47

233 PISTILLO ANTONIO FRA n°4219 64 9 M4M 176 M 00:57:44 10.39

245 COCQ HÉLÈNE FRA n°4054 81 5 M1F 63 F 00:58:38 10.23

263 VANBRUGGE LAETITIA FRA n°4273 85 12 M0F 77 F 01:00:17 9.95

268 CARON VÉRONIQUE FRA n°4044 67 5 M4F 79 F 01:00:33 9.91

271 PELZER SAGB,,, ELISE FRA n°4213 81 9 M1F 81 F 01:01:00 9.84

273 MESNIL LAURE FRA n°4199 79 10 M1F 83 F 01:01:19 9.79

288 MOUKAGNI PELZER MARIE FRA n°4203 79 12 M1F 90 F 01:04:46 9.26

293 OUKHIRA KHADIJA FRA n°4209 81 13 M1F 95 F 01:05:36 9.15

 

  • Nom du fichier : Hexagone
  • Taille : 1.02 Mo
Télécharger

COURSE CLUB MAI 2022 : ING Night Marathon Luxembourg 2022

COURSE CLUB MAI 2022 : ING Night Marathon Luxembourg 2022

 

RESULTATS  MARATHON HOMME FAW

192 19      MATHON, GAUTIER            03:39:29

193 24     INGMANSSON, NICLAS      03:39:29

283 49     DEREMETZ, NICOLAS        03:48:42

355 38     MAREAU, ALEXANDRE      03:54:51

398  67    VANDEWALLE KARL          03:57:48

                (RHAJAOUI, MOULAY (FRA))

747  61    DEZ, CHRISTOPHE               04:40:36

803 133  SAM ESSOME, SYLVAIN      04:49:43

803 112  LUCAS, OLIVIER                   04:49:42

809 113  OULGOUR, MBAREK           04:50:39

830 76    PROVOT, PHILIPPE               04:54:32

a egalement participé

DENIS, SÉBASTIEN 

 

 

RESULTATS  MARATHON FEMME  FAW

57     9      DELEEST, LOUISE                04:09:51

58    10     BRACQ, ALICE                     04:09:51

98    12     LING, ISABELLE (FRA)      04:29:50

100   4     PROVOT, VALÉRIE (FRA)   04:31:23

106   20   OUALI, LOUISA                    04:34:51

159   11   GIUDICELLI, VALÉRIE        05:11:15

177  26    HENICHART, ANNE             05:30:45

Ont également participé 

DUBOIS, VIRGINIE 

SALIN, PEGGY 

 

RESULTATS SEMI  MARATHON FEMME  FAW

571 58    OMARI, NASSERA             02:06:10

RESULTATS SEMI  MARATHON HOMME  FAW

1499 8    DUBOIS, ERIC-HENRI (FRA)  01:54:47

1637 283 BENOUALY, YOUNES     01:56:23

2419 49  GONZALEZ, JOSE            02:10:00

 

AVRIL 2021 FOULEES NATURE DE RONCQ

 

5 KM   105 participants

63   31'09''ASTIER Anne-Laure

 

10 KM    236 participants

101         52'46''DEPLECHIN Fanny

103         52'50''SANTERRE Betty

129         54'50''OMARI Nassera

184          1h01'13''MESNIL LaureFaw

187          1h01'29''COCQ HeleneFaw

 

 

SEMI MARATHON

  71     1h43'30''DENIS Sebastien

  91       1h49'21''SEGALLA Antoine

  99        1h49'42'' BERNIER Caroline

103   1h49'50''BRUNEEL Guillaume

116     1h52'13''CANTEAU Maxime

117      1h52'16''BOURGOIS Laureline

167    2h00'41''SAM ESSOME Sylvain

202    2h09'47''SALIN Peggy

211    2h12'17''DUBOIS Virginie

212   2h12'48''HENICHART Anne

JOSE 

COURSE CLUB du 20 MARS 2022 : LILLE Semi-marathon et 10 kms

Résultats du semi-marathon de Lille sur 2635 classés

Classement général Temps brut Dossard Prénom NOM Classement H/F Catégorie Classement dans la catégorie
251 01:27:27 2241 Alexandre MAREAU 232 SEM 113
396 01:32:27 1813 Gautier MATHON 372 SEM 167
397 01:32:27 1809 Niclas INGMANSSON 373 SEM  168
597 01:38:17 4336 Karl VANDEWALLE 555 M3M  33
610 01:38:32 1814 Barek OULGOUR 567 M3M  34
611 01:38:32 1765 Nicolas DEREMETZ 568 M2M  49
682 01:39:38 1764 Sebastien DENIS 630 M1M  95
708 01:40:13 1762 David Alexandre GUESQUIERE 654 SEM  268
841 01:42:58 4488 Emmanuelle FOURNIER 76 M1F  11
843 01:42:58 2254 Antoine HERMAN 767 M0M  120
930 01:44:31 2250 Philippe MARTEL 837 M3M  59
944 01:44:46 1812 Bruno PREUX 849 M2M  89
980 01:45:20 4492 Louise DELEEST 100 SEF  51
1167 01:48:45 4358 Caroline BERNIER 140 SEF  68
1170 01:48:49 1743 Guillaume BRUNEEL 1028 M2M  104
1177 01:48:55 2249 Herve STRUNC 1034 M2M  107
1268 01:50:35 1742 Sévère DEROI 1108 M3M  82
1324 01:51:30 4335 Alice BRACQ 173 SEF  85
1540 01:55:13 4493 Betty SANTERRE 223 M3F  10
1556 01:55:28 1810 Maxime CANTEAU 1333 M0M  199
1558 01:55:30 4334 Fanny DEPELCHIN 226 M0F  25
1561 01:55:32 4356 Laureline BOURGOIS 227 M2F  25
1583 01:55:51 2244 Antoine SEGALLA 1353 SEM  504
1635 01:56:47 2242 Sebastien RAGER 1392 M2M  159
1642 01:56:55 4332 Nathalie RUCK 248 M3F  13
1743 01:58:35 2252 Bastien CAGNAC 1472 M3M  116
1796 01:59:42 4362 Valerie PROVOT 292 M4F  11
1797 01:59:43 2245 Michel PLASSON 1507 M6M  13
2072 02:04:42 249 Pascal RUCK 1670 M3M  136
2074 02:04:50 2253 Philippe PROVOT 1671 M4M  105
2133 02:06:37 2251 Vincent DRUON 1704 M1M  236
2162 02:07:20 1808 Herve MARCHAND 1722 M3M  149
2207 02:08:34 2243 Olivier LUCAS 1747 M3M  152
2276 02:10:39 4360 Florence DUFOREST 497 M3F  31
2293 02:11:00 4337 Virginie DUBOIS 509 M2F  55
2306 02:11:20 4357 Peggy SALIN 519 M3F  33
2402 02:14:04 4333 Anne HENICHART 563 M3F  38
2408 02:14:17 4486 Muriel BOUGEANT 566 M3F  39
2409 02:14:24 4359 Elise PELZER 567 M1F  87
2428 02:15:44 1763 Fabien D'HAENE 1858 M2M  218
2446 02:16:41 4361 Marie MOUKAGNI 585 M1F  92

 

Résultats du 10 kms de Lille sur 1331 classés

Classement général Temps brut Dossard Prénom NOM Classement H/F Catégorie Classement dans la catégorie
458 00:48:54 5085 Juliette MASSOPTIER 72 M1F 5
459 00:48:54 3127 Éric-Henri DUBOIS 389 M6M 1
661 00:53:53 3126
Younès BENOUALY
526 M1M 65
683 00:54:17 5087
Nassera OMARI
148 M3F 12
699 00:54:37 4694 Marianne D'HAENE 156 M3F 13
854 00:57:24 3128 Xavier BARBERES 623 M5M 18
862 00:57:34 5083
Amal DECLERCK
241 M1F 14
1114 01:02:46 5084
Laure MESNIL
404 M1F 34
1159 01:04:06 5086
Khadija OUKHIRA
434 M1F 36

COURSE CLUB MARS 2022 : trail du Clairmarais de la Saint Patrick

Foulées Nocturnes de la Saint Patrick - 12 km Solo (12.000 km) - 12 Mars 2022 C L A S S E M E N T G E N E R A L -  275 participants

Clt Nom - Prénom Nat Licence Doss. Né Clt Cat Clt Sx Temps Moy

160 DEZ Christophe FRA n°12271 66 5 M4M 120 M 01:18:36 9.24

163 GIUDICELLI Valerie FRA n°12273 67 1 M4F 42 F 01:18:55 9.20

Foulées Nocturnes de la Saint Patrick - 21 km Solo (21.000 km) - 12 Mars 2022    210 participants

27 LEFEBVRE Julien FRA n°21239 76 4 M2M 26 M 01:42:00 12.35

192 LAMARCHE Olivier FRA n°21240 63 12 M4M 157 M 02:29:20 8.44

94 DENIS Sebastien FRA n°21114 78 14 M1M 87 M 01:58:32 10.63

144 BRUNAUX Patrice FRA n°21238 60 4 M5M 124 M 02:08:55 9.77

192 LAMARCHE Olivier FRA n°21240 63 12 M4M 157 M 02:29:20 8.44

 

COURSE CLUB février 2022 Trail des Givrés

 

Trail 18km - Classement arrivée

512458LEFEBVRE Julien  Les faw 01:39:26M (49e)Master 2 (9e)01:39:07 (49e)

1352447STRUNC HerveLes faw01:55:39M (126e)Master 2 (29e)01:55:20 (129e)

2492450BODART ChristianLes faw02:01:02M (228e)Master 4 (17e)02:00:43 (249e)

4412454LEDOUX NathalieLes faw02:20:16F (82e)Master 2 (19e)02:19:57 (442e)

4432455LEDOUX SebastienLes faw02:20:17M (360e)Master 2 (77e)02:19:59 (444e)

4422456SANTERRE Betty Faw02:20:17F (83e)Master 3 (8e)02:19:57 (443e

5122237DRUON VincentLes faw02:36:30M (399e)Master 1 (74e)02:35:49 (511e)

Wpxt7642

 

Trail 18km - Classement arrivée

361146INGMANSSON NiclasLes faw00:57:24M (35e)Senior (11e)00:57:13 (35e)

411006DEREMETZ NicolasLes faw00:59:45M (40e)Master 2 (1e)00:59:33 (41e)

2041287GIUDICELLI ValerieLes faw01:24:45F (47e)Master 4 (2e)01:24:21 (202e)

2051065LUCAS OlivierLes faw01:25:08M (158e)Master 3 (19e)01:24:45 (205e)

241116 MOUKPELZ Maie Les faw01:30:33F (65e)Senior (19e)01:30:09 (241e)

Vrwc7510

NOVEMBRE 2021 La course nature du Val de Marque

2ème édition de la Course Nature du Val de Marque du dimanche 21 novembre 2021

Résultats du 8 kms sur 90 classés

Classt Général  Chrono en H Min Sec NOM Prénom Année naissance Catégorie Classement dans catégorie
49 00:51:08 VANBRUGGE Laetitia 1985 M0F 10 sur 16

 

Résultats du 13 kms sur 326 classés

Classt Général  Chrono en H Min Sec NOM Prénom Année naissance Catégorie Classement dans catégorie
26 1h00'12'' DEREMETZ Nicolas 1977 M2M 2ème sur 25
33 1h01'19'' OULGOUR Mbarek 1968 M3M 4 sur 24
46 1h03'22'' AUPICK Celine 1987 M0F 2ème sur 27
50 1h04'22'' RHAJAOUI Moulay 1976 M2M 3ème sur 25
73 1h06'52'' DEBRUYNE Patrick 1965 M4M 6 sur 18
78 1h07'18'' SEGALLA Antoine 1989 SEM 10 sur 25
90 1h08'59'' EVRARD Olivier 1987 M0M 15 sur 29
94 1h09'09'' BOURGOIS Laureline 1976 M2F 5 sur 27
99 1h09'42'' CANTEAU Maxime 1987 M0M 17 sur 29
114 1h11'16'' DEPLECHIN Fanny 1985 M0F 6 sur 27
132 1h12'41'' LEFEBVRE Elodie 1973 M2F 9 sur 27
134 1h12'56'' RUCK Nathalie 1972 M3F 2ème sur 27
139 1h13'15'' JAMES Caroline 1978 M1F 4 sur 24
165 1h14'22'' PLASSON Michel 1953 M6M 2ème sur 4
177 1h15'17'' BENOUALY Younes 1980 M1M 26 sur 31
186 1h16'01'' LING Isabelle 1971 M3F 6 sur 27
189 1h16'09'' LAMARCHE Olivier 1963 M4M 12 sur 18
192 1h16'16'' PROVOT Valerie 1967 M4F 3ème sur 16
194 1h16'20'' SAM ESSOME Sylvain 1976 M2M 19 sur 25
208 1h17'24'' SANTERRE Betty 1972 M3F 9 sur 27
213 1h17'50'' RUCK Pascal 1969 M3M 15 sur 24
219 1h18'28'' ASTIER Anne Laure 1973 M2F 13 sur 27
227 1h19'00'' DUBOIS Virginie 1977 M2F 14 sur 27
228 1h19'00'' LUCAS Olivier 1971 M3M 18 sur 24
233 1h19'44'' BARBERES Xavier 1961 M5M 8 sur 10
234 1h19'54'' OMARI Nassera 1971 M3F 10 sur 27
235 1h19'59'' SALIN Peggy 1972 M3F 11 sur 27
244 1h21'05'' GONZALEZ Jose 1962 M5M 9 sur 10
245 1h21'05'' DUFOREST Florence 1969 M3F 13 sur 27
282 1h24'49'' HENICHART Anne 1970 M3F 19 sur 27
287 1h25'53'' PLOUVIN Lucie 1983 M0F 25 sur 27
290 1h26'38'' MOUKAGNI PELZER Marie 1979 M1F 20 sur 24
313 1h28'52'' LOPACINSKI Manon 1994 SEF 19 sur 20

 

Résultats du 26 kms sur 206 classés

Classt Général  Chrono en H Min Sec NOM Prénom Année naissance Catégorie Classement dans catégorie
24 1h53'33'' LEFEBVRE Julien 1976 M2M 5 sur 32
30 1h56'28'' HERMAN Antoine 1984 M0M 8 sur 19
67 2h09'05'' SANDOZ Stephane 1980 M1M 14 sur 33
68 2h09'07'' BOUZON Caroline 1977 M2F 3ème sur 11
69 2h09'07'' FOURNIER Emmanuelle 1979 M1F 1ère sur 8
78 2h10'33'' PREUX Bruno 1974 M2M 14 sur 32
79 2h10'49'' VANDEWALLE Karl 1972 M3M 6 sur 25
104 2h14'47'' BODART Christian 1964 M4M 8 sur 12
120 2h17'22'' STRUNK Herve 1974 M2M 24 sur 32
129 2h18'53'' DENIS Sébastien 1978 M1M 25 sur 33
141 2h23'35'' BERNIER Caroline 1989 SEF 4 sur 7
143 2h23'36'' BRUNEEL Guillaume 1974 M2M 28 sur 32
144 2h23'52'' MASSOPTIER Juliette 1982 M1F 4 sur 8
161 2h30'09'' BAHOR Benoit 1983 M0M 16 sur 19
187 2h43'46'' BEYAERT Michel 1967 M4M 12 sur 12

NOVEMBRE 2021 Les foulées de LOOS

Résultats du 10 kms sur 382 classés

Classt Général Temps Min Sec NOM Prénom Année de naissance Caté-
gorie
Classt dans la catégorie
67 40'11'' MATHON Gautier 1994 SEM 21 sur 72
108 42'37'' DENIS Sébastien 1978 M1M 14 sur 31
116 42'59'' AUPICQ Céline 1987 M0F 3ème sur 15
117 43'01'' DEREMETZ Nicolas 1977 M2M 15 sur 44
192 46'48'' BRACQ Alice 1995 SEF 10 sur 39
194 46'51'' BOURGEOIS Laureline 1976 M2F 2ème sur 10
228 48'55'' SAM ESSOME Sylvain 1976 M2M 29 sur 44
229 48'59'' LUCAS Olivier 1971 M3M 15 sur 25
279 52'44'' OMARI Nassera 1971 M3F 4 sur 6


Résultats du 5 kms sur 187 classés

Classt Général Temps Min Sec NOM Prénom Année de naissance Caté-
gorie
Classt dans la catégorie
98 28'52'' HERPSON Claire 1979 M1F 2ème sur 6
114 29'56'' BOURGEOIS Laureline 1976 M2F 4 sur 8

OCTOBRE 2021 : URBAN TRAIL DE BRUXELLES

 

Results 33 km

55.1875 Julien LEFEBVRE450:33:44(34.)1:07:28(39.)2:04:17(44.)2:30:43(50.)2:48:07

117.1876 Herve STRUNC470:38:48(105.)1:18:21(115.)2:22:54(117.)2:51:34(112.)3:11:35
134.1878  Louise DELEEST260:39:08(114.)1:20:06(132.)    3:17:34

Results 21km

167. 1879 Vincent DRUON 39 0:38:40 (160.) 1:18:58 (169.) 1:44:57 (157.) 2:03:09

Results 14 km

146. 1869 Patrick DEBRUYNE 56 0:40:15 (156.) 1:03:29 (140.) 1:21:01

163. 1870 f Laureline BOURGOIS 45 0:41:01 (175.) 1:04:25 (155.) 1:22:10

374.1873fManon LOPACINSKI 270:48:29(357.)1:17:13(342.)1:40:27 

387. 1871 Olivier LAMARCHE 57 0:48:24 (354.) 1:17:58 (348.) 1:42:53

 

  • Aucune note. Soyez le premier à attribuer une note !

Ajouter un commentaire